createdAt,value
2023-02-14T00:04:45.286Z,68.39
2023-02-14T00:09:54.274Z,71.43
2023-02-14T00:15:18.934Z,69.71
2023-02-14T00:20:34.237Z,69.98
2023-02-14T00:25:42.149Z,71.42
2023-02-14T00:30:52.287Z,71.33
2023-02-14T00:36:08.458Z,71.59
2023-02-14T00:41:20.830Z,72.12
2023-02-14T00:46:34.348Z,70.45
2023-02-14T00:51:39.967Z,72.99
2023-02-14T00:56:43.054Z,72.09
2023-02-14T01:01:45.851Z,72.23
2023-02-14T01:06:50.144Z,72.78
2023-02-14T01:11:53.085Z,71.49
2023-02-14T01:16:56.272Z,72.56
2023-02-14T01:22:04.133Z,74.95
2023-02-14T01:27:06.960Z,73.74
2023-02-14T01:32:10.603Z,74.08
2023-02-14T01:37:17.098Z,72.12
2023-02-14T01:42:20.192Z,73.23
2023-02-14T01:47:23.926Z,73.56
2023-02-14T01:52:35.943Z,73.74
2023-02-14T01:57:47.526Z,72.26
2023-02-14T02:02:50.970Z,73.11
2023-02-14T02:08:02.386Z,73.36
2023-02-14T02:13:08.571Z,72.00
2023-02-14T02:18:17.538Z,73.00
2023-02-14T02:24:05.398Z,73.30
2023-02-14T02:29:48.131Z,74.70
2023-02-14T02:35:23.702Z,74.72
2023-02-14T02:40:43.724Z,72.87
2023-02-14T02:46:09.650Z,73.76
2023-02-14T02:51:41.528Z,74.27
2023-02-14T02:56:53.522Z,73.71
2023-02-14T03:02:02.378Z,73.17
2023-02-14T03:07:27.828Z,73.27
2023-02-14T03:13:11.864Z,75.32
2023-02-14T03:18:25.836Z,75.04
2023-02-14T03:23:36.062Z,75.15
2023-02-14T03:28:47.256Z,77.40
2023-02-14T03:33:58.358Z,78.05
2023-02-14T03:39:08.631Z,78.87
2023-02-14T03:44:18.293Z,77.49
2023-02-14T03:49:24.913Z,78.56
2023-02-14T03:54:32.494Z,78.68
2023-02-14T03:59:36.412Z,79.51
2023-02-14T04:04:44.276Z,79.42
2023-02-14T04:09:48.736Z,79.66
2023-02-14T04:14:51.514Z,79.34
2023-02-14T04:19:54.511Z,79.66
2023-02-14T04:24:59.000Z,80.31
2023-02-14T04:30:01.819Z,82.33
2023-02-14T04:35:07.638Z,81.43
2023-02-14T04:40:17.046Z,81.02
2023-02-14T04:45:20.214Z,80.82
2023-02-14T04:50:25.842Z,78.56
2023-02-14T04:55:30.143Z,79.45
2023-02-14T05:00:32.972Z,79.47
2023-02-14T05:05:35.769Z,79.07
2023-02-14T05:10:41.044Z,78.84
2023-02-14T05:15:45.504Z,79.55
2023-02-14T05:20:50.506Z,79.85
2023-02-14T05:25:54.639Z,79.34
2023-02-14T05:30:58.899Z,77.47
2023-02-14T05:36:02.704Z,79.21
2023-02-14T05:41:07.324Z,80.16
2023-02-14T05:46:10.297Z,81.41
2023-02-14T05:51:13.387Z,80.99
2023-02-14T05:56:17.696Z,80.59
2023-02-14T06:01:20.567Z,80.60
2023-02-14T06:06:23.820Z,81.17
2023-02-14T06:11:28.040Z,81.52
2023-02-14T06:16:30.929Z,80.84
2023-02-14T06:21:33.712Z,81.94
2023-02-14T06:26:37.933Z,82.07
2023-02-14T06:31:40.834Z,81.19
2023-02-14T06:36:43.816Z,81.01
2023-02-14T06:41:48.507Z,80.76
2023-02-14T06:46:51.384Z,80.08
2023-02-14T06:51:54.121Z,78.52
2023-02-14T06:56:58.461Z,78.23
2023-02-14T07:02:01.299Z,76.49
2023-02-14T07:07:04.446Z,79.28
2023-02-14T07:12:08.852Z,78.95
2023-02-14T07:17:11.649Z,79.49
2023-02-14T07:22:14.519Z,78.20
2023-02-14T07:27:18.705Z,79.74
2023-02-14T07:32:21.525Z,77.74
2023-02-14T07:37:24.542Z,77.40
2023-02-14T07:42:29.308Z,76.39
2023-02-14T07:47:32.139Z,77.02
2023-02-14T07:52:34.902Z,75.83
2023-02-14T07:57:39.390Z,75.41
2023-02-14T08:02:42.316Z,72.61
2023-02-14T08:07:45.276Z,72.45
2023-02-14T08:13:01.233Z,74.03
2023-02-14T08:18:03.976Z,74.87
2023-02-14T08:23:06.808Z,73.99
2023-02-14T08:28:10.940Z,75.55
2023-02-14T08:33:13.712Z,74.96
2023-02-14T08:38:16.583Z,73.94
2023-02-14T08:43:21.000Z,74.52
2023-02-14T08:48:25.242Z,73.81
2023-02-14T08:53:28.081Z,74.69
2023-02-14T08:58:32.866Z,73.88
2023-02-14T09:03:38.270Z,71.97
2023-02-14T09:08:41.574Z,70.99
2023-02-14T09:13:46.305Z,72.12
2023-02-14T09:18:49.766Z,73.35
2023-02-14T09:23:52.757Z,72.98
2023-02-14T09:28:57.657Z,73.29
2023-02-14T09:34:17.818Z,72.80
2023-02-14T09:39:20.618Z,71.75
2023-02-14T09:44:31.477Z,71.00
2023-02-14T09:49:39.616Z,70.73
2023-02-14T09:54:44.715Z,71.45
2023-02-14T09:59:54.330Z,70.66
2023-02-14T10:05:06.787Z,70.92
2023-02-14T10:10:15.133Z,72.50
2023-02-14T10:15:23.088Z,72.17
2023-02-14T10:20:31.187Z,73.95
2023-02-14T10:25:42.008Z,72.74
2023-02-14T10:31:00.228Z,73.04
2023-02-14T10:36:07.247Z,72.51
2023-02-14T10:41:29.469Z,71.87
2023-02-14T10:46:42.320Z,71.47
2023-02-14T10:51:50.416Z,70.98
2023-02-14T10:56:58.544Z,71.47
2023-02-14T11:02:03.398Z,69.71
2023-02-14T11:07:13.692Z,69.68
2023-02-14T11:12:38.503Z,70.40
2023-02-14T11:17:43.433Z,69.65
2023-02-14T11:22:46.997Z,72.01
2023-02-14T11:27:52.726Z,71.20
2023-02-14T11:32:57.434Z,70.96
2023-02-14T11:38:01.733Z,72.08
2023-02-14T11:43:20.246Z,73.95
2023-02-14T11:48:37.139Z,73.44
2023-02-14T11:53:47.107Z,72.79
2023-02-14T11:58:55.258Z,71.95
2023-02-14T12:04:04.074Z,72.32
2023-02-14T12:09:24.919Z,72.46
2023-02-14T12:14:30.070Z,72.29
2023-02-14T12:19:39.184Z,72.03
2023-02-14T12:24:50.906Z,71.04
2023-02-14T12:29:59.257Z,71.89
2023-02-14T12:35:14.430Z,70.04
2023-02-14T12:40:23.870Z,72.25
2023-02-14T12:45:44.629Z,71.07
2023-02-14T12:50:55.270Z,72.32
2023-02-14T12:56:06.619Z,72.52
2023-02-14T13:01:39.076Z,73.02
2023-02-14T13:06:49.300Z,73.75
2023-02-14T13:12:02.587Z,74.11
2023-02-14T13:17:12.897Z,73.20
2023-02-14T13:22:20.128Z,74.04
2023-02-14T13:27:25.504Z,73.84
2023-02-14T13:32:33.328Z,72.47
2023-02-14T13:37:38.179Z,71.93
2023-02-14T13:42:55.463Z,70.88
2023-02-14T13:48:05.604Z,71.84
2023-02-14T13:53:13.843Z,72.26
2023-02-14T13:58:21.655Z,72.32
2023-02-14T14:03:57.289Z,71.83
2023-02-14T14:09:01.701Z,72.43
2023-02-14T14:14:26.258Z,72.33
2023-02-14T14:19:39.758Z,72.13
2023-02-14T14:24:53.510Z,71.60
2023-02-14T14:29:58.525Z,72.85
2023-02-14T14:35:03.760Z,73.29
2023-02-14T14:40:09.579Z,73.20
2023-02-14T14:45:23.844Z,73.81
2023-02-14T14:50:29.723Z,72.24
2023-02-14T14:55:37.537Z,74.76
2023-02-14T15:00:42.462Z,74.23
2023-02-14T15:05:47.256Z,74.67
2023-02-14T15:10:55.736Z,76.60
2023-02-14T15:15:59.413Z,75.38
2023-02-14T15:21:04.495Z,76.42
2023-02-14T15:26:16.924Z,75.98
2023-02-14T15:31:20.143Z,75.49
2023-02-14T15:36:25.494Z,76.77
2023-02-14T15:41:29.601Z,76.07
2023-02-14T15:46:36.558Z,77.06
2023-02-14T15:51:40.615Z,77.45
2023-02-14T15:56:48.857Z,76.69
2023-02-14T16:01:54.489Z,78.26
2023-02-14T16:07:07.147Z,79.26
2023-02-14T16:12:30.869Z,79.01
2023-02-14T16:17:35.505Z,79.23
2023-02-14T16:22:38.353Z,80.91
2023-02-14T16:27:42.522Z,80.83
2023-02-14T16:32:50.726Z,82.43
2023-02-14T16:37:53.999Z,82.40
2023-02-14T16:42:59.137Z,81.73
2023-02-14T16:48:02.240Z,81.43
2023-02-14T16:53:07.054Z,80.98
2023-02-14T16:58:11.205Z,83.09
2023-02-14T17:03:13.932Z,82.46
2023-02-14T17:08:17.309Z,84.10
2023-02-14T17:13:24.789Z,85.24
2023-02-14T17:18:27.600Z,84.07
2023-02-14T17:23:30.333Z,84.34
2023-02-14T17:28:34.472Z,84.12
2023-02-14T17:33:37.271Z,84.97
2023-02-14T17:38:40.473Z,85.47
2023-02-14T17:43:44.616Z,84.43
2023-02-14T17:48:48.878Z,85.11
2023-02-14T17:53:52.200Z,87.35
2023-02-14T17:58:56.771Z,88.35
2023-02-14T18:03:59.787Z,87.47
2023-02-14T18:09:06.749Z,87.86
2023-02-14T18:14:11.157Z,88.97
2023-02-14T18:19:15.906Z,89.81
2023-02-14T18:24:18.706Z,91.86
2023-02-14T18:29:22.920Z,91.82
2023-02-14T18:34:25.787Z,91.49
2023-02-14T18:39:28.637Z,92.58
2023-02-14T18:44:33.417Z,92.67
2023-02-14T18:49:36.208Z,93.68
2023-02-14T18:54:39.624Z,92.75
2023-02-14T18:59:45.104Z,93.99
2023-02-14T19:04:47.956Z,93.76
2023-02-14T19:09:50.717Z,95.42
2023-02-14T19:14:56.115Z,95.55
2023-02-14T19:19:59.753Z,96.29
2023-02-14T19:25:02.537Z,96.71
2023-02-14T19:30:08.385Z,98.28
2023-02-14T19:35:11.811Z,98.71
2023-02-14T19:40:15.244Z,99.65
2023-02-14T19:45:19.766Z,99.57
2023-02-14T19:50:22.564Z,100.00
2023-02-14T19:55:27.570Z,100.00
2023-02-14T20:00:31.743Z,100.00
2023-02-14T20:05:38.237Z,100.00
2023-02-14T20:10:41.165Z,100.00
2023-02-14T20:15:45.651Z,99.58
2023-02-14T20:21:11.528Z,100.00
2023-02-14T20:26:15.853Z,100.00
2023-02-14T20:31:22.836Z,99.49
2023-02-14T20:36:27.104Z,100.00
2023-02-14T20:41:34.329Z,100.00
2023-02-14T20:46:38.981Z,100.00
2023-02-14T20:51:42.178Z,100.00
2023-02-14T20:56:45.312Z,100.00
2023-02-14T21:01:49.525Z,100.00
2023-02-14T21:06:52.330Z,100.00
2023-02-14T21:11:55.164Z,100.00
2023-02-14T21:16:59.309Z,100.00
2023-02-14T21:22:02.128Z,100.00
2023-02-14T21:27:05.093Z,100.00
2023-02-14T21:32:09.520Z,100.00
2023-02-14T21:37:12.991Z,100.00
2023-02-14T21:42:17.182Z,100.00
2023-02-14T21:47:21.307Z,100.00
2023-02-14T21:52:24.196Z,100.00
2023-02-14T21:57:27.039Z,100.00
2023-02-14T22:02:31.127Z,100.00
2023-02-14T22:07:33.948Z,100.00
2023-02-14T22:12:36.739Z,100.00
2023-02-14T22:17:40.853Z,100.00
2023-02-14T22:22:43.575Z,100.00
2023-02-14T22:27:46.314Z,100.00
2023-02-14T22:32:50.561Z,100.00
2023-02-14T22:37:53.560Z,100.00
2023-02-14T22:42:58.019Z,100.00
2023-02-14T22:48:02.117Z,100.00
2023-02-14T22:53:04.911Z,100.00
2023-02-14T22:58:09.088Z,100.00
2023-02-14T23:03:13.386Z,100.00
2023-02-14T23:08:16.419Z,100.00
2023-02-14T23:13:36.898Z,100.00
2023-02-14T23:18:58.497Z,100.00
2023-02-14T23:24:01.292Z,100.00
2023-02-14T23:29:04.298Z,100.00
2023-02-14T23:34:08.476Z,100.00
2023-02-14T23:39:11.541Z,100.00
2023-02-14T23:44:14.407Z,100.00
2023-02-14T23:49:18.756Z,100.00
2023-02-14T23:54:23.595Z,100.00
2023-02-14T23:59:26.325Z,100.00
